Whitewood, South Dakota
Current Conditions -  °F | °C
As of 3:35 PM on Monday 20 Oct 2014 (Local Time) from KSPF Reporting Station
Clear Clear  
Wind Chill: 75°   Ceiling: Unl
Heat Index: 75°   Visibility: 10mi
Dew Point: 48°   Wind: 8mph
Humidity: 38%   Direction: 100°E
Pressure: 29.95"   Gusts: NA
Location:  44.46°N, 103.64°W
Report Text: KSPF 202135Z AUTO 10007KT 10SM CLR 24/09 A2995 RMK AO2
Loading
Personal Weather Stations






























Interactive Weather Map
Tropical Storm Tracking
New forecast layout! Learn more

10-Day Weather Forecast

Advertisements
Track Severe Weather on mobile